Drakesville, Iowa
Current Conditions -  °F | °C
As of 5:53 PM on Friday 24 Oct 2014 (Local Time) from KOTM Reporting Station
Overcast Overcast  
Wind Chill: 65°   Ceiling: 1900
Heat Index: 65°   Visibility: 8mi
Dew Point: 60°   Wind: 6mph
Humidity: 84%   Direction: 230°SW
Pressure: 29.91"   Gusts: NA
Location:  40.8°N, 92.48°W
Report Text: KOTM 242253Z AUTO 23005KT 8SM OVC019 18/16 A2991 RMK AO2 SLP128 T01830156
Loading
Personal Weather Stations






























Interactive Weather Map
Tropical Storm Tracking
New forecast layout! Learn more

10-Day Weather Forecast

Advertisements
Track Severe Weather on mobile